createdAt,value
2023-02-08T00:01:25.567Z,23.30
2023-02-08T00:04:52.816Z,24.50
2023-02-08T00:08:20.495Z,24.60
2023-02-08T00:11:47.828Z,26.80
2023-02-08T00:15:15.327Z,23.80
2023-02-08T00:18:42.892Z,25.40
2023-02-08T00:22:10.569Z,26.60
2023-02-08T00:25:38.092Z,27.60
2023-02-08T00:29:05.196Z,28.20
2023-02-08T00:32:35.024Z,27.40
2023-02-08T00:36:03.934Z,26.60
2023-02-08T00:39:34.505Z,27.90
2023-02-08T00:43:04.797Z,27.90
2023-02-08T00:46:32.194Z,26.90
2023-02-08T00:49:59.966Z,24.90
2023-02-08T00:53:27.212Z,28.00
2023-02-08T00:56:54.778Z,29.20
2023-02-08T01:00:32.018Z,30.10
2023-02-08T01:04:02.343Z,32.30
2023-02-08T01:07:29.661Z,34.00
2023-02-08T01:11:02.831Z,33.10
2023-02-08T01:14:30.468Z,33.70
2023-02-08T01:17:59.487Z,31.60
2023-02-08T01:21:28.825Z,35.40
2023-02-08T01:24:56.294Z,34.60
2023-02-08T01:28:23.569Z,39.00
2023-02-08T01:31:51.099Z,34.80
2023-02-08T01:35:18.855Z,37.60
2023-02-08T01:38:46.788Z,40.40
2023-02-08T01:42:16.360Z,36.30
2023-02-08T01:45:44.473Z,39.00
2023-02-08T01:49:17.511Z,39.90
2023-02-08T01:52:48.577Z,40.00
2023-02-08T01:56:22.590Z,40.10
2023-02-08T01:59:55.571Z,40.10
2023-02-08T02:03:24.807Z,40.30
2023-02-08T02:06:54.632Z,41.90
2023-02-08T02:10:26.942Z,40.30
2023-02-08T02:13:54.469Z,43.80
2023-02-08T02:17:22.699Z,44.80
2023-02-08T02:21:06.000Z,43.30
2023-02-08T02:25:05.242Z,41.50
2023-02-08T02:32:27.658Z,41.60
2023-02-08T02:36:02.152Z,39.90
2023-02-08T02:39:39.202Z,46.40
2023-02-08T02:43:35.408Z,45.10
2023-02-08T02:47:11.874Z,45.00
2023-02-08T02:50:42.968Z,46.80
2023-02-08T02:54:19.458Z,47.90
2023-02-08T02:57:49.453Z,44.90
2023-02-08T03:01:26.029Z,48.00
2023-02-08T03:04:58.294Z,44.60
2023-02-08T03:08:43.708Z,46.30
2023-02-08T03:12:23.806Z,45.80
2023-02-08T03:16:02.311Z,47.20
2023-02-08T03:19:37.550Z,45.60
2023-02-08T03:23:16.245Z,43.80
2023-02-08T03:26:54.067Z,43.40
2023-02-08T03:30:29.182Z,47.00
2023-02-08T03:34:02.085Z,41.60
2023-02-08T03:37:32.990Z,42.30
2023-02-08T03:41:04.291Z,44.70
2023-02-08T03:44:39.208Z,43.60
2023-02-08T03:48:09.741Z,38.70
2023-02-08T03:51:40.727Z,40.80
2023-02-08T03:55:12.935Z,42.10
2023-02-08T03:58:46.389Z,37.90
2023-02-08T04:02:22.248Z,38.40
2023-02-08T04:05:50.794Z,38.70
2023-02-08T04:09:18.141Z,41.50
2023-02-08T04:12:46.746Z,42.60
2023-02-08T04:16:14.425Z,42.90
2023-02-08T04:19:42.259Z,41.50
2023-02-08T04:23:09.679Z,44.50
2023-02-08T04:26:36.996Z,42.40
2023-02-08T04:30:04.993Z,45.10
2023-02-08T04:33:32.275Z,45.00
2023-02-08T04:36:59.475Z,43.40
2023-02-08T04:40:26.876Z,42.80
2023-02-08T04:43:54.076Z,42.30
2023-02-08T04:47:21.493Z,43.90
2023-02-08T04:50:49.378Z,42.90
2023-02-08T04:54:16.647Z,42.80
2023-02-08T04:57:43.877Z,46.40
2023-02-08T05:01:12.073Z,42.60
2023-02-08T05:04:39.360Z,43.80
2023-02-08T05:08:08.349Z,41.90
2023-02-08T05:11:35.584Z,45.50
2023-02-08T05:15:02.788Z,41.50
2023-02-08T05:18:30.039Z,39.80
2023-02-08T05:21:57.265Z,43.60
2023-02-08T05:25:24.416Z,43.60
2023-02-08T05:28:51.772Z,40.60
2023-02-08T05:32:19.233Z,43.10
2023-02-08T05:35:47.106Z,39.20
2023-02-08T05:39:14.207Z,41.60
2023-02-08T05:42:42.541Z,39.20
2023-02-08T05:46:10.267Z,37.40
2023-02-08T05:49:37.561Z,40.80
2023-02-08T05:53:04.762Z,42.00
2023-02-08T05:56:32.562Z,39.80
2023-02-08T05:59:59.755Z,39.30
2023-02-08T06:03:27.067Z,46.30
2023-02-08T06:06:54.355Z,35.40
2023-02-08T06:10:21.884Z,47.00
2023-02-08T06:13:49.536Z,45.60
2023-02-08T06:17:17.030Z,40.30
2023-02-08T06:20:44.225Z,36.60
2023-02-08T06:24:12.110Z,36.50
2023-02-08T06:27:39.283Z,35.30
2023-02-08T06:31:07.153Z,33.70
2023-02-08T06:34:34.608Z,33.10
2023-02-08T06:38:01.970Z,33.60
2023-02-08T06:41:29.251Z,30.90
2023-02-08T06:44:59.486Z,30.70
2023-02-08T06:48:27.193Z,31.20
2023-02-08T06:52:02.104Z,29.70
2023-02-08T06:55:29.417Z,32.00
2023-02-08T06:58:57.437Z,31.70
2023-02-08T07:02:28.004Z,28.90
2023-02-08T07:06:04.452Z,27.80
2023-02-08T07:09:33.870Z,27.90
2023-02-08T07:13:02.769Z,25.60
2023-02-08T07:16:30.291Z,25.00
2023-02-08T07:19:57.485Z,23.60
2023-02-08T07:23:24.987Z,23.50
2023-02-08T07:26:52.260Z,21.60
2023-02-08T07:30:20.014Z,19.30
2023-02-08T07:33:47.615Z,18.60
2023-02-08T07:37:15.164Z,16.80
2023-02-08T07:40:42.937Z,17.60
2023-02-08T07:44:10.488Z,15.40
2023-02-08T07:47:37.688Z,15.30
2023-02-08T07:51:05.446Z,16.50
2023-02-08T07:54:32.884Z,16.10
2023-02-08T07:58:03.324Z,17.40
2023-02-08T08:01:30.844Z,16.10
2023-02-08T08:04:58.344Z,17.40
2023-02-08T08:08:25.560Z,15.90
2023-02-08T08:11:52.701Z,15.80
2023-02-08T08:15:20.138Z,14.90
2023-02-08T08:18:47.294Z,14.50
2023-02-08T08:22:17.605Z,15.50
2023-02-08T08:25:44.830Z,16.20
2023-02-08T08:29:12.021Z,15.60
2023-02-08T08:32:41.843Z,15.70
2023-02-08T08:36:10.425Z,16.00
2023-02-08T08:39:38.055Z,12.50
2023-02-08T08:43:05.264Z,14.70
2023-02-08T08:46:32.526Z,16.00
2023-02-08T08:49:59.897Z,15.80
2023-02-08T08:53:27.407Z,14.70
2023-02-08T08:56:54.702Z,14.80
2023-02-08T09:00:25.377Z,14.60
2023-02-08T09:03:52.879Z,15.00
2023-02-08T09:10:50.559Z,15.60
2023-02-08T09:14:17.823Z,14.90
2023-02-08T09:17:45.736Z,16.90
2023-02-08T09:21:24.721Z,15.70
2023-02-08T09:24:53.547Z,16.30
2023-02-08T09:28:20.783Z,15.90
2023-02-08T09:31:47.970Z,13.70
2023-02-08T09:35:25.265Z,14.40
2023-02-08T09:38:57.936Z,16.10
2023-02-08T09:42:35.932Z,17.20
2023-02-08T09:46:09.464Z,16.60
2023-02-08T09:50:03.676Z,16.10
2023-02-08T09:53:36.220Z,15.20
2023-02-08T09:57:07.459Z,15.90
2023-02-08T10:00:42.354Z,15.50
2023-02-08T10:04:17.291Z,15.00
2023-02-08T10:07:47.908Z,16.00
2023-02-08T10:11:36.489Z,15.00
2023-02-08T10:15:17.106Z,16.10
2023-02-08T10:18:51.012Z,14.60
2023-02-08T10:22:29.789Z,15.00
2023-02-08T10:26:14.525Z,16.40
2023-02-08T10:29:56.579Z,15.00
2023-02-08T10:33:31.445Z,14.30
2023-02-08T10:37:01.131Z,16.00
2023-02-08T10:44:14.763Z,13.70
2023-02-08T10:47:56.266Z,13.30
2023-02-08T10:51:24.142Z,14.30
2023-02-08T10:54:55.416Z,14.20
2023-02-08T10:58:26.374Z,14.00
2023-02-08T11:01:54.396Z,15.40
2023-02-08T11:05:32.297Z,15.30
2023-02-08T11:08:59.718Z,18.20
2023-02-08T11:12:26.867Z,16.10
2023-02-08T11:15:57.364Z,20.60
2023-02-08T11:19:35.528Z,20.50
2023-02-08T11:23:03.784Z,19.10
2023-02-08T11:26:38.532Z,17.30
2023-02-08T11:30:25.238Z,15.50
2023-02-08T11:34:06.716Z,16.00
2023-02-08T11:37:34.268Z,15.90
2023-02-08T11:41:03.715Z,15.30
2023-02-08T11:44:47.301Z,15.00
2023-02-08T11:48:37.494Z,14.70
2023-02-08T11:52:06.075Z,16.00
2023-02-08T11:55:35.463Z,14.80
2023-02-08T11:59:06.811Z,15.50
2023-02-08T12:02:39.212Z,15.20
2023-02-08T12:06:27.037Z,15.00
2023-02-08T12:10:28.371Z,15.50
2023-02-08T12:14:26.531Z,17.80
2023-02-08T12:18:15.358Z,17.30
2023-02-08T12:21:46.545Z,18.70
2023-02-08T12:25:30.159Z,18.80
2023-02-08T12:29:15.127Z,21.80
2023-02-08T12:32:57.791Z,21.80
2023-02-08T12:36:36.306Z,23.80
2023-02-08T12:40:37.797Z,23.70
2023-02-08T12:44:14.934Z,23.90
2023-02-08T12:48:03.764Z,22.30
2023-02-08T12:51:47.776Z,24.40
2023-02-08T12:55:22.663Z,24.60
2023-02-08T12:58:58.992Z,24.90
2023-02-08T13:02:34.276Z,25.80
2023-02-08T13:06:05.469Z,22.40
2023-02-08T13:09:41.547Z,20.80
2023-02-08T13:13:17.529Z,22.50
2023-02-08T13:16:47.668Z,22.20
2023-02-08T13:20:28.889Z,20.00
2023-02-08T13:23:58.007Z,21.20
2023-02-08T13:27:25.904Z,18.60
2023-02-08T13:31:00.922Z,19.80
2023-02-08T13:34:36.562Z,19.50
2023-02-08T13:38:07.425Z,20.60
2023-02-08T13:41:36.458Z,20.00
2023-02-08T13:45:06.524Z,28.20
2023-02-08T13:48:45.302Z,27.30
2023-02-08T13:52:13.300Z,26.70
2023-02-08T13:55:57.285Z,29.80
2023-02-08T13:59:37.219Z,28.90
2023-02-08T14:03:21.825Z,25.80
2023-02-08T14:06:55.661Z,28.00
2023-02-08T14:10:37.472Z,31.90
2023-02-08T14:14:14.790Z,27.30
2023-02-08T14:17:45.776Z,35.50
2023-02-08T14:21:32.195Z,29.70
2023-02-08T14:25:09.750Z,40.00
2023-02-08T14:28:45.047Z,32.60
2023-02-08T14:32:23.439Z,36.20
2023-02-08T14:35:58.296Z,41.80
2023-02-08T14:39:30.370Z,39.60
2023-02-08T14:43:01.207Z,40.70
2023-02-08T14:46:47.470Z,31.20
2023-02-08T14:50:20.299Z,30.20
2023-02-08T14:53:53.700Z,27.90
2023-02-08T14:57:28.126Z,31.10
2023-02-08T15:00:58.230Z,36.40
2023-02-08T15:04:25.971Z,44.50
2023-02-08T15:07:59.017Z,34.70
2023-02-08T15:11:28.821Z,36.70
2023-02-08T15:14:59.042Z,42.90
2023-02-08T15:18:33.285Z,45.10
2023-02-08T15:22:19.979Z,74.00
2023-02-08T15:25:55.604Z,50.80
2023-02-08T15:29:39.056Z,59.30
2023-02-08T15:33:18.023Z,46.90
2023-02-08T15:36:52.763Z,64.40
2023-02-08T15:44:18.995Z,52.70
2023-02-08T15:47:46.485Z,44.90
2023-02-08T15:51:16.246Z,51.90
2023-02-08T15:54:48.178Z,48.30
2023-02-08T15:58:28.739Z,71.60
2023-02-08T16:01:57.312Z,84.00
2023-02-08T16:05:27.553Z,77.50
2023-02-08T16:08:57.939Z,81.80
2023-02-08T16:12:27.524Z,83.30
2023-02-08T16:19:35.944Z,70.20
2023-02-08T16:23:05.149Z,55.20
2023-02-08T16:26:36.898Z,53.30
2023-02-08T16:30:04.262Z,50.10
2023-02-08T16:33:32.971Z,50.10
2023-02-08T16:37:01.100Z,42.30
2023-02-08T16:40:51.574Z,58.50
2023-02-08T16:44:28.037Z,82.10
2023-02-08T16:48:36.076Z,64.70
2023-02-08T16:52:03.415Z,58.20
2023-02-08T16:55:34.791Z,62.60
2023-02-08T16:59:02.214Z,60.90
2023-02-08T17:02:29.454Z,57.70
2023-02-08T17:05:57.351Z,56.10
2023-02-08T17:09:24.510Z,80.30
2023-02-08T17:12:52.980Z,100.50
2023-02-08T17:16:24.754Z,66.70
2023-02-08T17:20:03.443Z,61.70
2023-02-08T17:23:38.253Z,69.10
2023-02-08T17:27:05.630Z,70.90
2023-02-08T17:30:36.217Z,75.90
2023-02-08T17:34:05.323Z,80.80
2023-02-08T17:37:32.641Z,81.20
2023-02-08T17:41:05.872Z,89.20
2023-02-08T17:44:34.148Z,74.00
2023-02-08T17:48:13.618Z,65.20
2023-02-08T17:51:41.921Z,67.10
2023-02-08T17:55:12.715Z,89.00
2023-02-08T17:58:40.495Z,72.70
2023-02-08T18:02:08.849Z,99.10
2023-02-08T18:05:38.974Z,68.90
2023-02-08T18:09:06.390Z,70.70
2023-02-08T18:12:35.371Z,75.70
2023-02-08T18:16:10.065Z,85.30
2023-02-08T18:19:38.353Z,81.80
2023-02-08T18:23:05.741Z,101.10
2023-02-08T18:26:36.789Z,87.30
2023-02-08T18:30:04.140Z,83.40
2023-02-08T18:33:31.719Z,86.30
2023-02-08T18:37:02.332Z,82.20
2023-02-08T18:40:31.357Z,80.20
2023-02-08T18:44:00.660Z,73.80
2023-02-08T18:47:27.954Z,86.20
2023-02-08T18:50:59.174Z,80.30
2023-02-08T18:54:26.640Z,85.50
2023-02-08T18:57:53.894Z,87.20
2023-02-08T19:01:23.333Z,91.50
2023-02-08T19:11:47.261Z,97.10
2023-02-08T19:15:14.485Z,104.70
2023-02-08T19:18:41.809Z,108.30
2023-02-08T19:22:09.080Z,107.90
2023-02-08T19:25:39.904Z,101.10
2023-02-08T19:29:09.266Z,100.90
2023-02-08T19:32:36.513Z,102.10
2023-02-08T19:36:09.535Z,88.30
2023-02-08T19:39:36.950Z,93.00
2023-02-08T19:43:04.321Z,81.30
2023-02-08T19:46:33.073Z,80.10
2023-02-08T19:50:00.531Z,80.00
2023-02-08T19:53:28.449Z,82.30
2023-02-08T19:56:56.071Z,83.60
2023-02-08T20:00:25.811Z,86.00
2023-02-08T20:03:54.475Z,85.10
2023-02-08T20:07:21.685Z,82.50
2023-02-08T20:10:50.741Z,86.30
2023-02-08T20:17:44.805Z,75.70
2023-02-08T20:21:12.685Z,64.20
2023-02-08T20:24:40.053Z,62.60
2023-02-08T20:28:07.976Z,55.60
2023-02-08T20:31:37.307Z,60.00
2023-02-08T20:35:04.787Z,59.60
2023-02-08T20:38:32.243Z,68.00
2023-02-08T20:41:59.420Z,64.60
2023-02-08T20:45:27.480Z,64.50
2023-02-08T20:48:56.506Z,65.40
2023-02-08T20:52:23.575Z,69.40
2023-02-08T20:55:50.850Z,67.60
2023-02-08T20:59:18.280Z,72.70
2023-02-08T21:02:45.761Z,84.80
2023-02-08T21:06:18.435Z,79.60
2023-02-08T21:09:46.110Z,77.50
2023-02-08T21:13:13.435Z,78.30
2023-02-08T21:16:41.234Z,74.20
2023-02-08T21:20:10.148Z,78.10
2023-02-08T21:23:38.643Z,105.10
2023-02-08T21:27:06.770Z,93.20
2023-02-08T21:30:34.008Z,99.10
2023-02-08T21:34:03.102Z,100.20
2023-02-08T21:37:30.299Z,90.20
2023-02-08T21:40:57.614Z,95.70
2023-02-08T21:44:24.825Z,101.20
2023-02-08T21:47:52.281Z,94.50
2023-02-08T21:51:37.443Z,102.40
2023-02-08T21:55:04.807Z,87.80
2023-02-08T21:58:32.246Z,86.30
2023-02-08T22:01:59.588Z,90.00
2023-02-08T22:05:26.896Z,86.90
2023-02-08T22:08:54.449Z,87.80
2023-02-08T22:12:23.537Z,89.90
2023-02-08T22:15:50.972Z,86.70
2023-02-08T22:19:18.880Z,89.10
2023-02-08T22:22:46.547Z,82.20
2023-02-08T22:26:16.585Z,84.00
2023-02-08T22:29:43.936Z,80.80
2023-02-08T22:33:13.925Z,86.40
2023-02-08T22:36:50.451Z,77.80
2023-02-08T22:40:17.753Z,79.40
2023-02-08T22:43:45.470Z,78.60
2023-02-08T22:47:14.298Z,79.40
2023-02-08T22:50:41.661Z,76.10
2023-02-08T22:54:09.194Z,74.60
2023-02-08T22:57:39.412Z,72.00
2023-02-08T23:01:12.969Z,74.50
2023-02-08T23:04:42.648Z,69.00
2023-02-08T23:08:14.162Z,71.70
2023-02-08T23:11:41.464Z,70.00
2023-02-08T23:15:11.220Z,75.80
2023-02-08T23:18:39.454Z,76.50
2023-02-08T23:22:06.929Z,74.20
2023-02-08T23:25:34.284Z,84.10
2023-02-08T23:29:01.611Z,79.20
2023-02-08T23:32:29.003Z,77.90
2023-02-08T23:35:58.835Z,74.70
2023-02-08T23:39:28.739Z,72.60
2023-02-08T23:42:56.202Z,76.70
2023-02-08T23:46:24.940Z,70.30
2023-02-08T23:49:55.934Z,69.60
2023-02-08T23:53:23.322Z,73.80
2023-02-08T23:56:52.142Z,72.70
